sensor_id;sensor_type;location;lat;lon;timestamp;pressure;altitude;pressure_sealevel;temperature;humidity
40596;BME280;26304;48.794;9.820;2023-05-29T00:03:03;96394.38;;;19.08;44.47
40596;BME280;26304;48.794;9.820;2023-05-29T00:08:46;96400.38;;;19.05;45.25
40596;BME280;26304;48.794;9.820;2023-05-29T00:14:28;96397.69;;;18.91;45.44
40596;BME280;26304;48.794;9.820;2023-05-29T00:20:12;96398.47;;;18.87;45.22
40596;BME280;26304;48.794;9.820;2023-05-29T00:25:54;96393.50;;;18.82;45.28
40596;BME280;26304;48.794;9.820;2023-05-29T00:31:37;96390.56;;;18.87;44.94
40596;BME280;26304;48.794;9.820;2023-05-29T00:37:21;96387.50;;;18.82;44.89
40596;BME280;26304;48.794;9.820;2023-05-29T00:43:03;96379.16;;;18.69;45.44
40596;BME280;26304;48.794;9.820;2023-05-29T00:48:46;96379.53;;;18.67;45.25
40596;BME280;26304;48.794;9.820;2023-05-29T00:54:31;96382.91;;;18.64;45.69
40596;BME280;26304;48.794;9.820;2023-05-29T01:00:14;96371.56;;;18.49;45.94
40596;BME280;26304;48.794;9.820;2023-05-29T01:05:58;96376.84;;;18.49;45.85
40596;BME280;26304;48.794;9.820;2023-05-29T01:11:47;96379.78;;;18.44;45.87
40596;BME280;26304;48.794;9.820;2023-05-29T01:17:38;96379.47;;;18.53;45.54
40596;BME280;26304;48.794;9.820;2023-05-29T01:23:51;96368.94;;;18.49;46.04
40596;BME280;26304;48.794;9.820;2023-05-29T01:29:37;96362.88;;;18.45;46.10
40596;BME280;26304;48.794;9.820;2023-05-29T01:35:21;96361.78;;;18.46;46.04
40596;BME280;26304;48.794;9.820;2023-05-29T01:41:03;96362.81;;;18.34;46.40
40596;BME280;26304;48.794;9.820;2023-05-29T01:46:48;96364.78;;;18.48;45.92
40596;BME280;26304;48.794;9.820;2023-05-29T01:52:31;96364.06;;;18.51;46.18
40596;BME280;26304;48.794;9.820;2023-05-29T01:58:14;96364.78;;;18.45;46.18
40596;BME280;26304;48.794;9.820;2023-05-29T02:03:59;96360.97;;;18.35;46.39
40596;BME280;26304;48.794;9.820;2023-05-29T02:09:42;96350.41;;;18.31;46.53
40596;BME280;26304;48.794;9.820;2023-05-29T02:15:24;96351.84;;;18.22;46.33
40596;BME280;26304;48.794;9.820;2023-05-29T02:21:08;96347.31;;;18.11;46.74
40596;BME280;26304;48.794;9.820;2023-05-29T02:26:50;96357.81;;;18.11;46.34
40596;BME280;26304;48.794;9.820;2023-05-29T02:32:33;96353.59;;;17.96;46.92
40596;BME280;26304;48.794;9.820;2023-05-29T02:38:17;96358.47;;;17.97;46.85
40596;BME280;26304;48.794;9.820;2023-05-29T02:44:00;96357.00;;;18.00;46.89
40596;BME280;26304;48.794;9.820;2023-05-29T02:49:42;96359.19;;;17.91;47.08
40596;BME280;26304;48.794;9.820;2023-05-29T02:55:26;96360.25;;;17.83;47.12
40596;BME280;26304;48.794;9.820;2023-05-29T03:01:09;96354.25;;;17.86;47.00
40596;BME280;26304;48.794;9.820;2023-05-29T03:06:51;96360.91;;;17.72;47.66
40596;BME280;26304;48.794;9.820;2023-05-29T03:12:37;96356.38;;;17.69;47.55
40596;BME280;26304;48.794;9.820;2023-05-29T03:18:21;96345.47;;;17.67;47.88
40596;BME280;26304;48.794;9.820;2023-05-29T03:24:04;96349.88;;;17.56;47.64
40596;BME280;26304;48.794;9.820;2023-05-29T03:29:48;96350.63;;;17.56;48.21
40596;BME280;26304;48.794;9.820;2023-05-29T03:35:31;96344.28;;;17.61;47.98
40596;BME280;26304;48.794;9.820;2023-05-29T03:41:13;96349.53;;;17.57;48.10
40596;BME280;26304;48.794;9.820;2023-05-29T03:46:57;96344.59;;;17.49;48.39
40596;BME280;26304;48.794;9.820;2023-05-29T03:52:39;96343.88;;;17.55;48.24
40596;BME280;26304;48.794;9.820;2023-05-29T03:58:22;96347.13;;;17.38;48.20
40596;BME280;26304;48.794;9.820;2023-05-29T04:04:05;96353.47;;;17.33;48.34
40596;BME280;26304;48.794;9.820;2023-05-29T04:09:48;96355.94;;;17.19;48.73
40596;BME280;26304;48.794;9.820;2023-05-29T04:15:30;96363.97;;;17.33;49.31
40596;BME280;26304;48.794;9.820;2023-05-29T04:21:15;96369.94;;;17.30;49.60
40596;BME280;26304;48.794;9.820;2023-05-29T04:26:57;96371.75;;;17.22;49.50
40596;BME280;26304;48.794;9.820;2023-05-29T04:32:41;96380.16;;;17.39;48.81
40596;BME280;26304;48.794;9.820;2023-05-29T04:38:25;96394.09;;;17.47;48.84
40596;BME280;26304;48.794;9.820;2023-05-29T04:44:07;96391.19;;;17.55;48.87
40596;BME280;26304;48.794;9.820;2023-05-29T04:49:54;96390.13;;;17.64;48.64
40596;BME280;26304;48.794;9.820;2023-05-29T04:55:37;96391.41;;;17.81;48.65
40596;BME280;26304;48.794;9.820;2023-05-29T05:01:20;96408.06;;;17.92;49.12
40596;BME280;26304;48.794;9.820;2023-05-29T05:07:05;96402.81;;;17.95;48.50
40596;BME280;26304;48.794;9.820;2023-05-29T05:12:49;96408.81;;;17.92;48.52
40596;BME280;26304;48.794;9.820;2023-05-29T05:18:31;96410.38;;;18.04;47.89
40596;BME280;26304;48.794;9.820;2023-05-29T05:24:14;96418.63;;;17.99;48.14
40596;BME280;26304;48.794;9.820;2023-05-29T05:29:57;96418.09;;;17.83;48.59
40596;BME280;26304;48.794;9.820;2023-05-29T05:35:40;96429.13;;;17.99;48.33
40596;BME280;26304;48.794;9.820;2023-05-29T05:41:23;96440.03;;;18.01;48.83
40596;BME280;26304;48.794;9.820;2023-05-29T05:47:07;96432.91;;;18.02;48.38
40596;BME280;26304;48.794;9.820;2023-05-29T05:52:50;96434.41;;;17.99;48.93
40596;BME280;26304;48.794;9.820;2023-05-29T05:58:32;96440.50;;;18.10;49.40
40596;BME280;26304;48.794;9.820;2023-05-29T06:04:16;96440.97;;;18.23;49.29
40596;BME280;26304;48.794;9.820;2023-05-29T06:09:59;96444.19;;;18.54;48.58
40596;BME280;26304;48.794;9.820;2023-05-29T06:15:42;96453.28;;;18.71;48.70
40596;BME280;26304;48.794;9.820;2023-05-29T06:21:26;96451.91;;;18.92;49.00
40596;BME280;26304;48.794;9.820;2023-05-29T06:27:08;96453.00;;;18.91;48.73
40596;BME280;26304;48.794;9.820;2023-05-29T06:32:50;96462.13;;;19.00;48.36
40596;BME280;26304;48.794;9.820;2023-05-29T06:38:34;96468.88;;;19.05;48.38
40596;BME280;26304;48.794;9.820;2023-05-29T06:44:17;96470.41;;;19.10;48.22
40596;BME280;26304;48.794;9.820;2023-05-29T06:49:59;96478.00;;;19.18;48.56
40596;BME280;26304;48.794;9.820;2023-05-29T06:55:43;96477.25;;;19.29;48.08
40596;BME280;26304;48.794;9.820;2023-05-29T07:01:25;96494.97;;;19.28;48.21
40596;BME280;26304;48.794;9.820;2023-05-29T07:07:08;96496.13;;;19.31;48.25
40596;BME280;26304;48.794;9.820;2023-05-29T07:12:52;96502.50;;;19.33;48.12
40596;BME280;26304;48.794;9.820;2023-05-29T07:18:34;96506.66;;;19.38;47.93
40596;BME280;26304;48.794;9.820;2023-05-29T07:24:17;96505.56;;;19.42;48.24
40596;BME280;26304;48.794;9.820;2023-05-29T07:30:00;96501.44;;;19.45;47.88
40596;BME280;26304;48.794;9.820;2023-05-29T07:35:43;96507.09;;;19.51;47.67
40596;BME280;26304;48.794;9.820;2023-05-29T07:41:25;96511.25;;;19.52;48.12
40596;BME280;26304;48.794;9.820;2023-05-29T07:47:09;96508.97;;;19.57;47.86
40596;BME280;26304;48.794;9.820;2023-05-29T07:52:52;96515.00;;;19.54;47.79
40596;BME280;26304;48.794;9.820;2023-05-29T07:58:37;96515.41;;;19.56;47.41
40596;BME280;26304;48.794;9.820;2023-05-29T08:04:22;96517.28;;;19.59;47.32
40596;BME280;26304;48.794;9.820;2023-05-29T08:10:06;96517.28;;;19.63;47.45
40596;BME280;26304;48.794;9.820;2023-05-29T08:15:48;96519.56;;;19.65;47.28
40596;BME280;26304;48.794;9.820;2023-05-29T08:21:33;96517.31;;;19.74;47.45
40596;BME280;26304;48.794;9.820;2023-05-29T08:27:19;96515.88;;;19.80;46.90
40596;BME280;26304;48.794;9.820;2023-05-29T08:33:01;96514.31;;;19.75;47.19
40596;BME280;26304;48.794;9.820;2023-05-29T08:38:45;96500.34;;;19.75;47.47
40596;BME280;26304;48.794;9.820;2023-05-29T08:44:30;96515.81;;;19.73;47.21
40596;BME280;26304;48.794;9.820;2023-05-29T08:50:13;96506.78;;;19.74;47.50
40596;BME280;26304;48.794;9.820;2023-05-29T08:55:59;96512.44;;;19.76;47.18
40596;BME280;26304;48.794;9.820;2023-05-29T09:01:43;96511.34;;;19.77;47.30
40596;BME280;26304;48.794;9.820;2023-05-29T09:07:26;96516.63;;;19.77;47.07
40596;BME280;26304;48.794;9.820;2023-05-29T09:13:10;96516.63;;;19.77;47.42
40596;BME280;26304;48.794;9.820;2023-05-29T09:19:04;96515.88;;;19.80;47.17
40596;BME280;26304;48.794;9.820;2023-05-29T09:24:48;96520.38;;;19.83;47.28
40596;BME280;26304;48.794;9.820;2023-05-29T09:30:37;96521.50;;;19.86;47.47
40596;BME280;26304;48.794;9.820;2023-05-29T09:36:20;96526.03;;;19.89;47.02
40596;BME280;26304;48.794;9.820;2023-05-29T09:42:04;96526.03;;;19.89;47.33
40596;BME280;26304;48.794;9.820;2023-05-29T09:47:50;96527.19;;;19.99;47.35
40596;BME280;26304;48.794;9.820;2023-05-29T09:53:33;96544.53;;;20.07;47.29
40596;BME280;26304;48.794;9.820;2023-05-29T09:59:16;96546.06;;;20.19;48.49
40596;BME280;26304;48.794;9.820;2023-05-29T10:05:00;96539.28;;;20.28;48.29
40596;BME280;26304;48.794;9.820;2023-05-29T10:10:45;96530.22;;;20.37;48.12
40596;BME280;26304;48.794;9.820;2023-05-29T10:16:29;96525.72;;;20.41;47.83
40596;BME280;26304;48.794;9.820;2023-05-29T10:22:21;96525.31;;;20.46;47.59
40596;BME280;26304;48.794;9.820;2023-05-29T10:28:06;96530.97;;;20.55;47.68
40596;BME280;26304;48.794;9.820;2023-05-29T10:34:00;96526.44;;;20.59;47.47
40596;BME280;26304;48.794;9.820;2023-05-29T10:39:46;96512.88;;;20.57;47.61
40596;BME280;26304;48.794;9.820;2023-05-29T10:45:55;96520.41;;;20.59;47.48
40596;BME280;26304;48.794;9.820;2023-05-29T10:51:40;96511.34;;;20.63;47.60
40596;BME280;26304;48.794;9.820;2023-05-29T10:57:24;96505.34;;;20.66;47.39
40596;BME280;26304;48.794;9.820;2023-05-29T11:03:07;96514.00;;;20.78;47.10
40596;BME280;26304;48.794;9.820;2023-05-29T11:08:54;96515.09;;;20.80;47.06
40596;BME280;26304;48.794;9.820;2023-05-29T11:14:45;96505.31;;;20.81;47.21
40596;BME280;26304;48.794;9.820;2023-05-29T11:20:35;96508.72;;;20.78;47.43
40596;BME280;26304;48.794;9.820;2023-05-29T11:26:19;96501.53;;;20.85;47.32
40596;BME280;26304;48.794;9.820;2023-05-29T11:32:05;96506.81;;;20.75;47.34
40596;BME280;26304;48.794;9.820;2023-05-29T11:37:49;96507.59;;;20.72;47.21
40596;BME280;26304;48.794;9.820;2023-05-29T11:43:31;96512.50;;;20.73;47.24
40596;BME280;26304;48.794;9.820;2023-05-29T11:49:27;96507.56;;;20.75;47.14
40596;BME280;26304;48.794;9.820;2023-05-29T11:55:10;96510.59;;;20.74;47.31
40596;BME280;26304;48.794;9.820;2023-05-29T12:00:52;96504.56;;;20.73;47.51
40596;BME280;26304;48.794;9.820;2023-05-29T12:06:36;96506.47;;;20.73;47.52
40596;BME280;26304;48.794;9.820;2023-05-29T12:12:19;96506.09;;;20.74;47.53
40596;BME280;26304;48.794;9.820;2023-05-29T12:18:01;96512.84;;;20.86;47.32
40596;BME280;26304;48.794;9.820;2023-05-29T12:23:45;96503.00;;;20.97;47.29
40596;BME280;26304;48.794;9.820;2023-05-29T12:29:33;96500.31;;;21.08;48.19
40596;BME280;26304;48.794;9.820;2023-05-29T12:35:17;96510.50;;;21.10;47.90
40596;BME280;26304;48.794;9.820;2023-05-29T12:41:01;96506.75;;;21.03;47.92
40596;BME280;26304;48.794;9.820;2023-05-29T12:46:44;96503.34;;;20.99;48.13
40596;BME280;26304;48.794;9.820;2023-05-29T12:52:27;96500.69;;;21.07;47.88
40596;BME280;26304;48.794;9.820;2023-05-29T12:58:12;96501.81;;;21.09;47.91
40596;BME280;26304;48.794;9.820;2023-05-29T13:03:54;96499.19;;;21.05;48.38
40596;BME280;26304;48.794;9.820;2023-05-29T13:09:37;96500.69;;;21.07;48.44
40596;BME280;26304;48.794;9.820;2023-05-29T13:15:22;96500.69;;;21.07;48.43
40596;BME280;26304;48.794;9.820;2023-05-29T13:21:05;96495.78;;;21.05;48.85
40596;BME280;26304;48.794;9.820;2023-05-29T13:26:47;96491.56;;;21.22;48.53
40596;BME280;26304;48.794;9.820;2023-05-29T13:32:32;96490.00;;;21.39;48.62
40596;BME280;26304;48.794;9.820;2023-05-29T13:38:15;96482.41;;;21.48;48.59
40596;BME280;26304;48.794;9.820;2023-05-29T13:43:57;96484.59;;;21.64;49.50
40596;BME280;26304;48.794;9.820;2023-05-29T13:49:42;96476.19;;;21.80;49.19
40596;BME280;26304;48.794;9.820;2023-05-29T13:55:24;96476.13;;;21.87;49.55
40596;BME280;26304;48.794;9.820;2023-05-29T14:01:07;96464.63;;;22.08;50.25
40596;BME280;26304;48.794;9.820;2023-05-29T14:06:51;96461.31;;;21.97;50.32
40596;BME280;26304;48.794;9.820;2023-05-29T14:12:33;96455.22;;;22.00;49.35
40596;BME280;26304;48.794;9.820;2023-05-29T14:18:16;96460.94;;;21.99;48.48
40596;BME280;26304;48.794;9.820;2023-05-29T14:23:59;96460.91;;;22.02;48.09
40596;BME280;26304;48.794;9.820;2023-05-29T14:29:42;96453.22;;;22.15;47.57
40596;BME280;26304;48.794;9.820;2023-05-29T14:35:25;96461.88;;;22.23;47.47
40596;BME280;26304;48.794;9.820;2023-05-29T14:41:09;96454.72;;;22.20;47.13
40596;BME280;26304;48.794;9.820;2023-05-29T14:46:52;96455.03;;;22.25;46.71
40596;BME280;26304;48.794;9.820;2023-05-29T14:52:34;96443.28;;;22.26;46.33
40596;BME280;26304;48.794;9.820;2023-05-29T14:58:18;96446.56;;;22.41;45.57
40596;BME280;26304;48.794;9.820;2023-05-29T15:04:01;96453.59;;;22.59;45.65
40596;BME280;26304;48.794;9.820;2023-05-29T15:09:43;96432.28;;;22.70;45.76
40596;BME280;26304;48.794;9.820;2023-05-29T15:15:27;96428.84;;;22.73;45.77
40596;BME280;26304;48.794;9.820;2023-05-29T15:21:09;96433.13;;;22.63;46.17
40596;BME280;26304;48.794;9.820;2023-05-29T15:26:52;96427.50;;;22.57;46.63
40596;BME280;26304;48.794;9.820;2023-05-29T15:32:36;96436.91;;;22.62;46.53
40596;BME280;26304;48.794;9.820;2023-05-29T15:38:18;96426.31;;;22.62;46.37
40596;BME280;26304;48.794;9.820;2023-05-29T15:44:01;96428.97;;;22.62;46.62
40596;BME280;26304;48.794;9.820;2023-05-29T15:49:44;96413.41;;;22.67;46.40
40596;BME280;26304;48.794;9.820;2023-05-29T15:55:27;96412.66;;;22.63;46.57
40596;BME280;26304;48.794;9.820;2023-05-29T16:01:09;96409.31;;;22.59;46.35
40596;BME280;26304;48.794;9.820;2023-05-29T16:06:53;96406.97;;;22.65;46.11
40596;BME280;26304;48.794;9.820;2023-05-29T16:12:36;96407.44;;;22.91;46.73
40596;BME280;26304;48.794;9.820;2023-05-29T16:18:23;96411.59;;;22.92;46.45
40596;BME280;26304;48.794;9.820;2023-05-29T16:24:07;96416.56;;;22.90;46.50
40596;BME280;26304;48.794;9.820;2023-05-29T16:29:49;96413.97;;;22.82;46.44
40596;BME280;26304;48.794;9.820;2023-05-29T16:35:32;96417.97;;;22.98;46.87
40596;BME280;26304;48.794;9.820;2023-05-29T16:41:16;96422.75;;;23.07;47.74
40596;BME280;26304;48.794;9.820;2023-05-29T16:46:58;96409.16;;;23.04;47.89
40596;BME280;26304;48.794;9.820;2023-05-29T16:52:41;96411.81;;;23.04;47.52
40596;BME280;26304;48.794;9.820;2023-05-29T16:58:24;96412.13;;;23.10;47.90
40596;BME280;26304;48.794;9.820;2023-05-29T17:04:07;96417.44;;;23.10;47.73
40596;BME280;26304;48.794;9.820;2023-05-29T17:09:51;96420.81;;;23.14;47.33
40596;BME280;26304;48.794;9.820;2023-05-29T17:15:35;96418.88;;;23.18;47.46
40596;BME280;26304;48.794;9.820;2023-05-29T17:21:17;96417.09;;;23.08;47.56
40596;BME280;26304;48.794;9.820;2023-05-29T17:26:59;96421.47;;;22.88;47.44
40596;BME280;26304;48.794;9.820;2023-05-29T17:32:45;96432.34;;;22.97;47.27
40596;BME280;26304;48.794;9.820;2023-05-29T17:38:29;96431.63;;;22.93;47.97
40596;BME280;26304;48.794;9.820;2023-05-29T17:44:11;96440.34;;;22.93;47.96
40596;BME280;26304;48.794;9.820;2023-05-29T17:49:55;96446.41;;;22.94;47.70
40596;BME280;26304;48.794;9.820;2023-05-29T17:55:38;96438.78;;;22.96;47.58
40596;BME280;26304;48.794;9.820;2023-05-29T18:01:20;96438.00;;;22.99;47.50
40596;BME280;26304;48.794;9.820;2023-05-29T18:07:04;96439.50;;;23.00;46.99
40596;BME280;26304;48.794;9.820;2023-05-29T18:12:47;96437.16;;;23.09;47.27
40596;BME280;26304;48.794;9.820;2023-05-29T18:18:29;96440.63;;;23.02;46.69
40596;BME280;26304;48.794;9.820;2023-05-29T18:24:16;96441.53;;;22.89;46.48
40596;BME280;26304;48.794;9.820;2023-05-29T18:29:59;96443.94;;;23.14;46.02
40596;BME280;26304;48.794;9.820;2023-05-29T18:35:41;96448.44;;;23.17;45.61
40596;BME280;26304;48.794;9.820;2023-05-29T18:41:25;96454.16;;;23.12;45.08
40596;BME280;26304;48.794;9.820;2023-05-29T18:47:08;96446.34;;;23.01;45.28
40596;BME280;26304;48.794;9.820;2023-05-29T18:52:52;96454.75;;;22.92;44.98
40596;BME280;26304;48.794;9.820;2023-05-29T18:58:36;96453.50;;;23.04;44.28
40596;BME280;26304;48.794;9.820;2023-05-29T19:04:18;96453.22;;;22.95;44.81
40596;BME280;26304;48.794;9.820;2023-05-29T19:10:01;96454.72;;;22.20;41.98
40596;BME280;26304;48.794;9.820;2023-05-29T19:15:45;96463.31;;;21.82;40.24
40596;BME280;26304;48.794;9.820;2023-05-29T19:21:27;96475.50;;;21.69;40.12
40596;BME280;26304;48.794;9.820;2023-05-29T19:27:10;96479.63;;;21.73;40.09
40596;BME280;26304;48.794;9.820;2023-05-29T19:32:54;96489.91;;;21.57;40.43
40596;BME280;26304;48.794;9.820;2023-05-29T19:38:36;96501.28;;;21.47;40.72
40596;BME280;26304;48.794;9.820;2023-05-29T19:44:19;96502.09;;;21.33;40.54
40596;BME280;26304;48.794;9.820;2023-05-29T19:50:03;96518.72;;;21.30;40.62
40596;BME280;26304;48.794;9.820;2023-05-29T19:55:48;96522.13;;;21.27;40.95
40596;BME280;26304;48.794;9.820;2023-05-29T20:01:30;96531.25;;;21.18;41.29
40596;BME280;26304;48.794;9.820;2023-05-29T20:07:14;96540.72;;;21.16;41.47
40596;BME280;26304;48.794;9.820;2023-05-29T20:12:56;96550.53;;;21.12;41.72
40596;BME280;26304;48.794;9.820;2023-05-29T20:18:39;96553.91;;;21.12;41.89
40596;BME280;26304;48.794;9.820;2023-05-29T20:24:22;96565.63;;;21.15;42.21
40596;BME280;26304;48.794;9.820;2023-05-29T20:30:06;96567.88;;;21.16;42.31
40596;BME280;26304;48.794;9.820;2023-05-29T20:35:48;96570.91;;;21.15;42.32
40596;BME280;26304;48.794;9.820;2023-05-29T20:41:32;96569.78;;;21.09;42.57
40596;BME280;26304;48.794;9.820;2023-05-29T20:47:18;96580.78;;;21.00;42.27
40596;BME280;26304;48.794;9.820;2023-05-29T20:53:02;96578.53;;;20.84;42.11
40596;BME280;26304;48.794;9.820;2023-05-29T20:58:46;96577.00;;;20.76;41.98
40596;BME280;26304;48.794;9.820;2023-05-29T21:04:28;96580.81;;;20.75;41.97
40596;BME280;26304;48.794;9.820;2023-05-29T21:10:10;96582.31;;;20.72;42.23
40596;BME280;26304;48.794;9.820;2023-05-29T21:15:54;96581.56;;;20.68;42.55
40596;BME280;26304;48.794;9.820;2023-05-29T21:21:37;96579.31;;;20.66;42.40
40596;BME280;26304;48.794;9.820;2023-05-29T21:27:20;96575.50;;;20.67;42.54
40596;BME280;26304;48.794;9.820;2023-05-29T21:33:04;96577.78;;;20.65;42.43
40596;BME280;26304;48.794;9.820;2023-05-29T21:38:47;96577.00;;;20.43;42.71
40596;BME280;26304;48.794;9.820;2023-05-29T21:44:30;96576.22;;;20.36;42.58
40596;BME280;26304;48.794;9.820;2023-05-29T21:50:14;96580.00;;;20.42;42.41
40596;BME280;26304;48.794;9.820;2023-05-29T21:55:56;96577.38;;;20.35;42.67
40596;BME280;26304;48.794;9.820;2023-05-29T22:01:39;96575.88;;;20.30;42.55
40596;BME280;26304;48.794;9.820;2023-05-29T22:07:23;96587.94;;;20.27;42.58
40596;BME280;26304;48.794;9.820;2023-05-29T22:13:06;96588.31;;;20.22;42.95
40596;BME280;26304;48.794;9.820;2023-05-29T22:18:48;96583.75;;;20.05;43.03
40596;BME280;26304;48.794;9.820;2023-05-29T22:24:34;96585.97;;;19.99;43.23
40596;BME280;26304;48.794;9.820;2023-05-29T22:30:18;96580.69;;;19.88;43.50
40596;BME280;26304;48.794;9.820;2023-05-29T22:36:00;96585.97;;;19.88;43.49
40596;BME280;26304;48.794;9.820;2023-05-29T22:41:44;96589.75;;;19.94;43.78
40596;BME280;26304;48.794;9.820;2023-05-29T22:47:27;96592.38;;;19.84;43.58
40596;BME280;26304;48.794;9.820;2023-05-29T22:53:09;96597.28;;;19.82;43.82
40596;BME280;26304;48.794;9.820;2023-05-29T22:58:54;96598.69;;;19.72;44.17
40596;BME280;26304;48.794;9.820;2023-05-29T23:04:36;96599.44;;;19.65;44.31
40596;BME280;26304;48.794;9.820;2023-05-29T23:10:18;96596.38;;;19.56;44.39
40596;BME280;26304;48.794;9.820;2023-05-29T23:16:02;96594.13;;;19.58;44.20
40596;BME280;26304;48.794;9.820;2023-05-29T23:21:45;96593.38;;;19.57;44.61
40596;BME280;26304;48.794;9.820;2023-05-29T23:27:28;96588.06;;;19.50;44.88
40596;BME280;26304;48.794;9.820;2023-05-29T23:33:12;96585.81;;;19.49;44.97
40596;BME280;26304;48.794;9.820;2023-05-29T23:38:55;96589.19;;;19.42;45.15
40596;BME280;26304;48.794;9.820;2023-05-29T23:44:37;96592.59;;;19.53;44.92
40596;BME280;26304;48.794;9.820;2023-05-29T23:50:21;96594.88;;;19.58;44.88
40596;BME280;26304;48.794;9.820;2023-05-29T23:56:04;96598.63;;;19.50;45.06
